Forside
METAR-TAF:

METAR-TAF

Lufthavne :

Flughafen Lübeck

Lübeck, Tyskland

Breddekreds: 53-49N, længdekreds: 010-42E, højde: 14 m

Aktuelle vejr

Denne rapport blev lavet for 5 timer og 23 minutter siden, kl. 19:50 UTC
Vind 7 kt fra nordvest
Temperatur 14°C
Fugtighed 100%
Tryk 1009 hPa
Sigt: 3300 m
Brudte skyer i en højde af 500 ft
finregn, dis

METAR: EDHL 211950Z 32007KT 3300 DZ BR BKN005 14/14 Q1009

Tid: 03:13 (01:13 UTC)

Vejrudsigter

Denne rapport blev lavet for 7 timer og 45 minutter siden, kl. 17:28 UTC
Foreløbig gælder fra 21 på 18 UTC til 21 på 21 UTC
Vind 9 kt fra nordnordvest
Sigt 10 km eller mere
Brudte skyer i en højde af 600 ft
Midlertidig
fra 21 på 18 UTC til 21 på 21 UTC
Vind 4 kt fra vestnordvest
Sigt: 3000 m
Spredte skyer i en højde af 400 ft
Brudte skyer i en højde af 1500 ft
let regn

TAF: EDHL 211728Z 2118/2121 33009KT 9999 BKN006 TEMPO 2118/2121 29004KT 3000 -RA SCT004 BKN015

Vejrobservationer og prognoser fra mere end 4000 lufthavne (METAR og TAF).

De gule og røde prikker repræsenterer de meteorologiske stationer.

Flyt musen over at se navnet på stationen.

Så klik over at se vejr observationer og prognoser.

At skifte det kort: Klik på de grønne knapper med et sort kors for at zoome ind; på den grønne knap med en bindestreg for at zoome ud; eller på de grønne pile for tilstødende kort.


METAR-TAF: